Time;durP1;ratioP1;P1;durP2;ratioP2;P2;SDS_P1;SDS_P2;PMS_P1;PMS_P2;Temp;Humidity;BMP_temperature;BMP_pressure;BME280_temperature;BME280_humidity;BME280_pressure;Samples;Min_cycle;Max_cycle;Signal;HPM_P1;HPM_P2
2023/01/28 00:00:30;;;;;;;32.30;12.70;;;;;;;-2.88;100.00;95794.59;5007633;28;20064;-71
2023/01/28 00:03:16;;;;;;;34.95;13.13;;;;;;;-2.90;100.00;95790.59;5003130;28;20481;-71
2023/01/28 00:05:42;;;;;;;30.38;12.75;;;;;;;-2.90;100.00;95800.91;5008909;28;20041;-71
2023/01/28 00:08:08;;;;;;;31.85;13.10;;;;;;;-2.91;100.00;95799.31;5007761;28;20060;-71
2023/01/28 00:10:33;;;;;;;29.48;12.73;;;;;;;-2.84;100.00;95800.22;5004125;28;20456;-69
2023/01/28 00:12:59;;;;;;;35.80;14.00;;;;;;;-2.86;100.00;95791.84;5009569;28;20052;-70
2023/01/28 00:15:24;;;;;;;30.70;12.90;;;;;;;-2.88;100.00;95793.81;5007068;28;20061;-69
2023/01/28 00:17:51;;;;;;;32.10;12.82;;;;;;;-2.98;100.00;95794.09;5008438;28;20063;-70
2023/01/28 00:20:17;;;;;;;34.22;12.25;;;;;;;-2.90;100.00;95786.28;5006480;28;20497;-70
2023/01/28 00:22:48;;;;;;;35.67;12.85;;;;;;;-2.92;100.00;95790.00;5006725;28;20049;-70
2023/01/28 00:25:14;;;;;;;32.53;13.18;;;;;;;-2.91;100.00;95794.19;5007380;28;20383;-70
2023/01/28 00:27:39;;;;;;;34.90;12.38;;;;;;;-2.91;100.00;95794.19;4989482;28;20081;-70
2023/01/28 00:30:06;;;;;;;32.75;13.48;;;;;;;-2.91;100.00;95786.44;5008526;28;20096;-70
2023/01/28 00:32:31;;;;;;;35.28;14.73;;;;;;;-2.94;100.00;95794.50;5004262;28;20113;-70
2023/01/28 00:34:57;;;;;;;29.38;11.50;;;;;;;-2.93;100.00;95793.53;5007152;28;20045;-70
2023/01/28 00:37:22;;;;;;;30.75;12.55;;;;;;;-2.98;100.00;95794.88;5009198;28;20042;-70
2023/01/28 00:39:48;;;;;;;29.88;12.68;;;;;;;-2.94;100.00;95794.50;5000539;28;20057;-70
2023/01/28 00:42:13;;;;;;;33.85;13.07;;;;;;;-2.97;100.00;95795.69;5006187;28;20042;-70
2023/01/28 00:44:39;;;;;;;35.92;13.60;;;;;;;-2.91;100.00;95801.91;5007249;28;20498;-69
2023/01/28 00:47:04;;;;;;;37.97;14.07;;;;;;;-2.89;100.00;95792.22;5009218;28;20120;-70
2023/01/28 00:49:30;;;;;;;38.55;13.02;;;;;;;-2.92;100.00;95793.38;5001785;28;20038;-70
2023/01/28 00:51:55;;;;;;;35.13;13.77;;;;;;;-3.03;100.00;95786.88;5007188;28;20045;-69
2023/01/28 00:54:21;;;;;;;30.50;12.40;;;;;;;-2.99;100.00;95793.28;5008157;28;20042;-70
2023/01/28 00:56:46;;;;;;;28.60;12.13;;;;;;;-2.98;100.00;95789.72;4989202;28;20042;-70
2023/01/28 00:59:12;;;;;;;33.47;12.38;;;;;;;-2.99;100.00;95787.31;5005517;28;20061;-70
2023/01/28 01:01:38;;;;;;;36.33;14.10;;;;;;;-3.01;100.00;95795.22;5005073;28;20097;-70
2023/01/28 01:04:04;;;;;;;32.22;14.07;;;;;;;-2.98;100.00;95796.66;5006251;28;20037;-70
2023/01/28 01:06:35;;;;;;;38.78;14.70;;;;;;;-2.91;100.00;95796.75;5007914;28;20394;-69
2023/01/28 01:09:04;;;;;;;28.35;12.35;;;;;;;-3.08;100.00;95799.47;4999004;28;20054;-69
2023/01/28 01:11:29;;;;;;;35.08;13.10;;;;;;;-3.01;100.00;95800.38;5007721;28;20046;-70
2023/01/28 01:13:59;;;;;;;31.48;13.45;;;;;;;-3.08;100.00;95801.28;5005464;28;20070;-70
2023/01/28 01:16:27;;;;;;;31.08;10.40;;;;;;;-3.15;100.00;95808.88;5008180;28;20041;-70
2023/01/28 01:18:54;;;;;;;33.03;12.35;;;;;;;-3.06;100.00;95807.03;5007513;28;20057;-70
2023/01/28 01:21:22;;;;;;;35.60;12.75;;;;;;;-3.06;100.00;95818.16;5000303;28;20066;-70
2023/01/28 01:23:48;;;;;;;34.35;13.32;;;;;;;-3.00;100.00;95806.34;4983341;28;20572;-70
2023/01/28 01:26:14;;;;;;;30.20;12.80;;;;;;;-3.09;100.00;95807.38;4984349;28;20046;-71
2023/01/28 01:28:40;;;;;;;38.28;13.65;;;;;;;-3.05;100.00;95804.28;5003266;28;20129;-69
2023/01/28 01:31:17;;;;;;;31.08;13.70;;;;;;;-3.09;100.00;95803.03;5005315;28;20485;-69
2023/01/28 01:33:45;;;;;;;34.15;12.18;;;;;;;-3.06;100.00;95801.88;5005139;28;20749;-69
2023/01/28 01:36:13;;;;;;;31.83;11.70;;;;;;;-3.16;100.00;95802.13;5007528;28;20046;-70
2023/01/28 01:38:39;;;;;;;29.70;12.68;;;;;;;-3.11;100.00;95799.84;4988096;28;20112;-70
2023/01/28 01:41:06;;;;;;;29.70;11.15;;;;;;;-3.14;100.00;95815.63;5009598;28;20046;-70
2023/01/28 01:43:57;;;;;;;36.78;12.82;;;;;;;-3.07;100.00;95808.81;5010559;28;20540;-69
2023/01/28 01:46:32;;;;;;;32.60;13.18;;;;;;;-3.07;100.00;95811.38;5010989;28;20030;-69
2023/01/28 01:49:06;;;;;;;33.22;12.35;;;;;;;-3.09;100.00;95818.47;5003485;28;20528;-69
2023/01/28 01:51:33;;;;;;;33.53;13.00;;;;;;;-3.08;100.00;95814.13;5009070;28;20038;-69
2023/01/28 01:53:59;;;;;;;32.05;12.57;;;;;;;-3.14;100.00;95821.59;5002224;28;20460;-69
2023/01/28 01:56:31;;;;;;;35.20;13.60;;;;;;;-3.12;100.00;95826.56;5007451;28;20050;-69
2023/01/28 01:58:58;;;;;;;27.88;12.63;;;;;;;-3.09;100.00;95818.47;5011245;28;20456;-69
2023/01/28 02:01:28;;;;;;;39.35;13.55;;;;;;;-3.13;100.00;95817.25;5008083;28;20555;-70
2023/01/28 02:04:04;;;;;;;35.10;13.73;;;;;;;-3.13;100.00;95827.53;5009773;28;20045;-69
2023/01/28 02:06:32;;;;;;;34.95;14.13;;;;;;;-3.11;100.00;95825.59;5008571;28;20073;-69
2023/01/28 02:08:58;;;;;;;33.67;12.55;;;;;;;-3.10;100.00;95821.22;4992275;28;20050;-69
2023/01/28 02:11:28;;;;;;;32.90;13.13;;;;;;;-3.00;100.00;95826.94;5008885;28;20042;-70
2023/01/28 02:13:56;;;;;;;33.90;13.75;;;;;;;-3.06;100.00;95823.28;4994513;28;20049;-69
2023/01/28 02:16:23;;;;;;;34.78;13.32;;;;;;;-3.18;100.00;95829.84;5008976;28;20030;-70
2023/01/28 02:18:49;;;;;;;33.33;13.10;;;;;;;-3.11;100.00;95830.72;5007687;28;20434;-70
2023/01/28 02:21:45;;;;;;;34.70;13.48;;;;;;;-3.01;100.00;95830.50;4988808;28;20043;-70
2023/01/28 02:24:33;;;;;;;33.22;12.55;;;;;;;-3.11;100.00;95830.72;5004873;28;20033;-70
2023/01/28 02:27:13;;;;;;;33.67;13.32;;;;;;;-3.11;100.00;95830.72;5008510;28;20038;-70
2023/01/28 02:30:27;;;;;;;28.30;11.80;;;;;;;-3.01;100.00;95831.28;5009245;28;20052;-69
2023/01/28 02:33:16;;;;;;;31.75;12.38;;;;;;;-3.00;100.00;95826.94;4910926;29;20083;-70
2023/01/28 02:35:48;;;;;;;31.55;12.32;;;;;;;-3.00;100.00;95825.16;5006961;28;20038;-71
2023/01/28 02:38:22;;;;;;;31.35;11.85;;;;;;;-3.07;100.00;95824.25;5010505;28;20449;-70
2023/01/28 02:41:04;;;;;;;35.25;12.95;;;;;;;-2.99;100.00;95828.53;5007974;28;20053;-70
2023/01/28 02:43:42;;;;;;;33.75;14.10;;;;;;;-3.02;100.00;95834.81;4991750;28;20046;-70
2023/01/28 02:49:38;;;;;;;29.88;11.85;;;;;;;-3.11;100.00;95830.72;4985593;28;20049;-70
2023/01/28 02:53:39;;;;;;;34.83;13.65;;;;;;;-3.10;100.00;95837.50;5004768;28;20046;-70
2023/01/28 02:55:31;;;;;;;30.87;12.97;;;;;;;-3.03;100.00;95838.38;5004773;28;20045;-70
2023/01/28 02:58:18;;;;;;;33.95;13.30;;;;;;;-3.13;100.00;95832.69;4995753;28;20117;-70
2023/01/28 03:00:47;;;;;;;33.20;12.32;;;;;;;-3.07;100.00;95838.91;5008738;28;20146;-70
2023/01/28 03:03:20;;;;;;;34.70;12.63;;;;;;;-3.06;100.00;95843.91;4987139;28;20034;-70
2023/01/28 03:06:03;;;;;;;31.50;11.60;;;;;;;-3.09;100.00;95839.06;5005740;28;20066;-69
2023/01/28 03:39:09;;;;;;;35.35;13.60;;;;;;;-3.14;100.00;95856.84;5006481;28;20073;-70
2023/01/28 03:41:35;;;;;;;38.83;13.57;;;;;;;-3.07;100.00;95857.75;5006944;28;20034;-70
2023/01/28 03:46:44;;;;;;;30.77;12.35;;;;;;;-3.09;100.00;95857.09;5007704;28;20042;-70
2023/01/28 03:49:10;;;;;;;35.53;12.95;;;;;;;-3.13;100.00;95863.59;4989355;28;20042;-69
2023/01/28 03:51:35;;;;;;;36.25;12.25;;;;;;;-3.15;100.00;95860.38;5006180;28;20046;-70
2023/01/28 03:54:01;;;;;;;35.15;14.05;;;;;;;-3.10;100.00;95858.09;5009277;28;20034;-70
2023/01/28 03:56:31;;;;;;;31.88;12.50;;;;;;;-3.10;100.00;95860.66;5007544;28;20423;-70
2023/01/28 03:58:56;;;;;;;30.63;12.82;;;;;;;-3.18;100.00;95860.72;5008153;28;20508;-69
2023/01/28 04:01:23;;;;;;;39.83;13.50;;;;;;;-3.13;100.00;95863.59;4989202;28;20114;-69
2023/01/28 04:03:48;;;;;;;36.90;12.85;;;;;;;-3.17;100.00;95870.06;5008487;28;20132;-70
2023/01/28 04:06:14;;;;;;;33.42;12.82;;;;;;;-3.16;100.00;95863.91;5007956;28;20053;-70
2023/01/28 04:08:51;;;;;;;31.70;11.88;;;;;;;-3.16;100.00;95863.91;5007302;28;20054;-70
2023/01/28 04:11:20;;;;;;;40.38;15.18;;;;;;;-3.14;100.00;95867.13;5006411;28;20090;-69
2023/01/28 04:13:47;;;;;;;30.13;11.95;;;;;;;-3.05;100.00;95870.44;5009181;28;20038;-70
2023/01/28 04:16:16;;;;;;;32.55;11.82;;;;;;;-3.09;100.00;95875.13;5009542;28;20092;-70
2023/01/28 04:18:42;;;;;;;35.78;13.90;;;;;;;-3.21;100.00;95872.16;5004077;28;20042;-70
2023/01/28 04:21:08;;;;;;;35.63;13.32;;;;;;;-3.11;100.00;95871.94;5007504;28;20049;-70
2023/01/28 04:23:34;;;;;;;36.78;12.60;;;;;;;-3.08;100.00;95871.56;5008267;28;20473;-69
2023/01/28 04:25:59;;;;;;;33.03;12.98;;;;;;;-3.01;100.00;95877.63;5008092;28;20045;-70
2023/01/28 04:28:25;;;;;;;35.00;12.70;;;;;;;-3.08;100.00;95871.56;5008051;28;20068;-69
2023/01/28 04:30:51;;;;;;;32.88;11.85;;;;;;;-3.10;100.00;95878.69;4990965;28;20050;-69
2023/01/28 04:33:17;;;;;;;32.35;12.30;;;;;;;-3.12;100.00;95870.31;5005313;28;20038;-70
2023/01/28 04:35:43;;;;;;;36.22;13.50;;;;;;;-3.10;100.00;95888.97;5008263;28;20050;-70
2023/01/28 04:38:08;;;;;;;33.25;12.27;;;;;;;-3.09;100.00;95890.56;5007290;28;20129;-69
2023/01/28 04:40:34;;;;;;;35.75;13.55;;;;;;;-3.10;100.00;95888.16;5007364;28;20520;-70
2023/01/28 04:42:59;;;;;;;31.73;13.00;;;;;;;-3.11;100.00;95887.38;5006828;28;20099;-71
2023/01/28 04:45:25;;;;;;;32.35;12.63;;;;;;;-3.08;100.00;95896.53;5008268;28;20489;-71
2023/01/28 04:47:50;;;;;;;36.55;14.23;;;;;;;-3.09;100.00;95895.72;5009271;28;20038;-70
2023/01/28 04:50:16;;;;;;;36.58;13.98;;;;;;;-3.11;100.00;95892.53;5005494;28;20513;-70
2023/01/28 04:52:42;;;;;;;34.97;14.07;;;;;;;-3.11;100.00;95897.69;5005786;28;20042;-70
2023/01/28 04:55:09;;;;;;;34.65;12.88;;;;;;;-3.08;100.00;95897.31;5008759;28;20432;-70
2023/01/28 04:57:34;;;;;;;36.58;13.88;;;;;;;-3.09;100.00;95906.00;5004679;28;20049;-70
2023/01/28 05:00:00;;;;;;;37.10;13.18;;;;;;;-3.08;100.00;95902.47;5007546;28;20042;-70
2023/01/28 05:02:25;;;;;;;39.90;13.63;;;;;;;-3.16;100.00;95905.94;5002964;28;20042;-70
2023/01/28 05:04:51;;;;;;;35.13;12.57;;;;;;;-3.07;100.00;95909.22;5006508;28;20096;-70
2023/01/28 05:07:16;;;;;;;37.50;12.98;;;;;;;-3.17;100.00;95911.25;5008043;28;20046;-70
2023/01/28 05:09:42;;;;;;;30.75;12.25;;;;;;;-3.06;100.00;95910.84;5009549;28;20078;-70
2023/01/28 05:12:07;;;;;;;38.55;13.57;;;;;;;-3.11;100.00;95907.19;5003985;28;20560;-70
2023/01/28 05:14:33;;;;;;;31.95;12.32;;;;;;;-3.06;100.00;95905.69;5008492;28;20061;-70
2023/01/28 05:16:58;;;;;;;38.42;13.15;;;;;;;-3.15;100.00;95906.72;5012304;28;20089;-70
2023/01/28 05:19:24;;;;;;;35.63;13.10;;;;;;;-3.10;100.00;95909.59;5011727;28;20065;-70
2023/01/28 05:21:49;;;;;;;28.63;12.00;;;;;;;-3.14;100.00;95908.31;5009469;28;20513;-70
2023/01/28 05:24:15;;;;;;;32.10;12.88;;;;;;;-3.10;100.00;95909.59;5010764;28;20041;-71
2023/01/28 05:26:41;;;;;;;34.45;13.65;;;;;;;-3.07;100.00;95911.81;5010807;28;20463;-70
2023/01/28 05:29:07;;;;;;;33.45;12.98;;;;;;;-3.09;100.00;95906.00;5009232;28;20657;-70
2023/01/28 05:31:33;;;;;;;36.58;13.15;;;;;;;-3.08;100.00;95923.06;5008635;28;20094;-70
2023/01/28 05:33:58;;;;;;;27.92;10.85;;;;;;;-3.11;100.00;95918.28;5007302;28;20045;-69
2023/01/28 05:36:24;;;;;;;35.90;12.82;;;;;;;-3.03;100.00;95925.94;5011102;28;20060;-70
2023/01/28 05:38:50;;;;;;;32.08;11.57;;;;;;;-3.19;100.00;95926.06;5010549;28;20046;-70
2023/01/28 05:41:15;;;;;;;37.53;13.02;;;;;;;-3.18;100.00;95927.66;5010226;28;20049;-69
2023/01/28 05:43:41;;;;;;;33.63;13.27;;;;;;;-3.17;100.00;95929.28;5010159;28;20034;-70
2023/01/28 05:46:06;;;;;;;36.13;13.55;;;;;;;-3.21;100.00;95933.16;5011521;28;20046;-71
2023/01/28 05:48:32;;;;;;;34.85;13.05;;;;;;;-3.15;100.00;95932.47;5012849;28;20084;-70
2023/01/28 05:50:57;;;;;;;35.65;12.77;;;;;;;-3.15;100.00;95935.03;5005568;28;20049;-69
2023/01/28 05:53:23;;;;;;;36.70;12.90;;;;;;;-3.13;100.00;95946.78;5010018;28;20041;-70
2023/01/28 05:55:50;;;;;;;32.97;12.57;;;;;;;-3.14;100.00;95939.22;5010451;28;20046;-70
2023/01/28 05:58:16;;;;;;;33.13;13.38;;;;;;;-3.17;100.00;95944.72;5010147;28;20072;-70
2023/01/28 06:00:42;;;;;;;33.53;11.63;;;;;;;-3.13;100.00;95951.91;5003713;28;20049;-70
2023/01/28 06:03:07;;;;;;;39.00;13.43;;;;;;;-3.16;100.00;95951.44;5008068;28;20536;-70
2023/01/28 06:05:33;;;;;;;32.80;12.10;;;;;;;-3.15;100.00;95951.31;5009433;28;20045;-69
2023/01/28 06:07:59;;;;;;;31.77;12.05;;;;;;;-3.11;100.00;95949.16;5004507;28;20437;-69
2023/01/28 06:10:24;;;;;;;29.35;11.32;;;;;;;-3.07;100.00;95950.44;4999695;28;20042;-69
2023/01/28 06:12:50;;;;;;;33.60;11.93;;;;;;;-3.14;100.00;95954.66;5006198;28;20046;-70
2023/01/28 06:15:15;;;;;;;29.00;11.38;;;;;;;-3.22;100.00;95957.28;5010628;28;20042;-70
2023/01/28 06:17:41;;;;;;;28.05;11.80;;;;;;;-3.13;100.00;95951.91;5010195;28;20061;-70
2023/01/28 06:20:07;;;;;;;28.90;11.50;;;;;;;-3.15;100.00;95956.44;5006046;28;20502;-70
2023/01/28 06:22:33;;;;;;;32.88;12.40;;;;;;;-3.18;100.00;95958.56;5011360;28;20038;-70
2023/01/28 06:24:58;;;;;;;29.40;11.20;;;;;;;-3.26;100.00;95961.16;5009036;28;20530;-69
2023/01/28 06:27:24;;;;;;;34.20;11.95;;;;;;;-3.19;100.00;95962.09;5008261;28;20045;-70
2023/01/28 06:29:50;;;;;;;26.98;10.15;;;;;;;-3.26;100.00;95963.75;5008779;28;20100;-69
2023/01/28 06:32:15;;;;;;;27.25;10.80;;;;;;;-3.29;100.00;95966.66;5003340;28;20104;-70
2023/01/28 06:34:41;;;;;;;32.97;12.65;;;;;;;-3.26;100.00;95971.47;5009580;28;20485;-69
2023/01/28 06:37:07;;;;;;;30.67;10.98;;;;;;;-3.22;100.00;95967.59;5008231;28;20481;-70
2023/01/28 06:39:32;;;;;;;31.40;11.82;;;;;;;-3.20;100.00;95970.81;5009063;28;20038;-70
2023/01/28 06:41:59;;;;;;;34.58;12.27;;;;;;;-3.19;100.00;95977.53;4982104;28;20058;-70
2023/01/28 06:44:24;;;;;;;32.83;12.77;;;;;;;-3.21;100.00;95979.50;4993088;28;20046;-70
2023/01/28 06:46:50;;;;;;;33.92;11.80;;;;;;;-3.19;100.00;95982.69;5009879;28;20091;-70
2023/01/28 06:49:15;;;;;;;31.50;10.63;;;;;;;-3.21;100.00;95980.28;5008076;28;20402;-70
2023/01/28 06:51:41;;;;;;;32.30;11.35;;;;;;;-3.25;100.00;95979.03;5005002;28;20053;-70
2023/01/28 06:54:07;;;;;;;26.98;11.05;;;;;;;-3.13;100.00;95987.16;5010939;28;20042;-70
2023/01/28 06:56:32;;;;;;;32.03;12.25;;;;;;;-3.16;100.00;95988.31;5009741;28;20552;-69
2023/01/28 06:58:58;;;;;;;28.00;11.07;;;;;;;-3.28;100.00;95983.72;5007031;28;20041;-70
2023/01/28 07:01:23;;;;;;;30.35;11.60;;;;;;;-3.27;100.00;95986.13;5006347;28;20073;-70
2023/01/28 07:03:49;;;;;;;34.35;12.68;;;;;;;-3.17;100.00;95991.06;4991157;28;20053;-70
2023/01/28 07:06:15;;;;;;;31.23;11.75;;;;;;;-3.09;100.00;95996.13;5009614;28;20113;-70
2023/01/28 07:08:41;;;;;;;31.23;10.98;;;;;;;-3.10;100.00;95997.13;5009886;28;20697;-70
2023/01/28 07:11:07;;;;;;;33.05;12.25;;;;;;;-3.11;100.00;95995.50;5007634;28;20113;-70
2023/01/28 07:13:32;;;;;;;29.92;10.98;;;;;;;-3.07;100.00;96001.94;5008669;28;20054;-70
2023/01/28 07:15:58;;;;;;;26.55;11.20;;;;;;;-3.05;100.00;95997.41;5007886;28;20034;-69
2023/01/28 07:18:23;;;;;;;28.90;11.18;;;;;;;-3.07;100.00;95991.63;5008734;28;20042;-70
2023/01/28 07:20:49;;;;;;;40.15;12.75;;;;;;;-3.07;100.00;95996.78;5001485;28;20038;-69
2023/01/28 07:23:15;;;;;;;32.55;11.93;;;;;;;-3.01;100.00;96000.44;5005436;28;20065;-70
2023/01/28 07:25:40;;;;;;;34.88;14.15;;;;;;;-3.06;100.00;96007.88;5012726;28;20045;-69
2023/01/28 07:28:06;;;;;;;35.70;12.85;;;;;;;-3.08;100.00;96009.81;4984024;28;20083;-71
2023/01/28 07:30:31;;;;;;;36.22;13.73;;;;;;;-3.10;100.00;96007.41;5009497;28;20537;-70
2023/01/28 07:32:58;;;;;;;34.13;12.82;;;;;;;-3.07;100.00;96017.38;4992567;28;20053;-70
2023/01/28 07:35:25;;;;;;;30.55;11.65;;;;;;;-3.03;100.00;96012.66;5007822;28;20693;-71
2023/01/28 07:37:56;;;;;;;33.95;12.00;;;;;;;-3.01;100.00;96014.09;5006575;28;20048;-71
2023/01/28 07:40:22;;;;;;;25.48;11.02;;;;;;;-3.06;100.00;96010.44;5010452;28;20046;-71
2023/01/28 07:42:48;;;;;;;32.83;12.40;;;;;;;-3.09;100.00;96021.88;5009077;28;20041;-71
2023/01/28 07:45:14;;;;;;;31.67;12.15;;;;;;;-3.05;100.00;96020.56;5009067;28;20469;-72
2023/01/28 07:47:40;;;;;;;31.80;12.70;;;;;;;-3.07;100.00;96030.25;4992563;28;20054;-71
2023/01/28 07:50:06;;;;;;;29.05;9.90;;;;;;;-3.04;100.00;96027.31;5002537;28;20050;-71
2023/01/28 07:52:37;;;;;;;34.05;13.88;;;;;;;-3.04;100.00;96032.47;5009673;28;20056;-72
2023/01/28 07:55:04;;;;;;;33.42;12.63;;;;;;;-2.97;100.00;96033.41;4992868;28;20045;-72
2023/01/28 07:57:29;;;;;;;35.17;12.40;;;;;;;-3.04;100.00;96042.78;5021498;28;20068;-71
2023/01/28 07:59:55;;;;;;;29.35;12.23;;;;;;;-3.00;100.00;96036.31;5019064;28;20046;-70
2023/01/28 08:02:20;;;;;;;34.80;12.73;;;;;;;-2.98;100.00;96047.25;5021345;28;20092;-71
2023/01/28 08:04:46;;;;;;;36.45;13.60;;;;;;;-2.99;100.00;96045.66;5011504;28;20053;-72
2023/01/28 08:07:11;;;;;;;37.17;13.68;;;;;;;-2.97;100.00;96041.13;5028077;28;20038;-72
2023/01/28 08:09:37;;;;;;;38.20;13.32;;;;;;;-2.89;100.00;96057.50;5028399;28;20032;-71
2023/01/28 08:12:03;;;;;;;30.05;12.90;;;;;;;-3.02;100.00;96061.44;5005253;28;20043;-72
2023/01/28 08:14:29;;;;;;;37.22;12.90;;;;;;;-2.92;100.00;96050.13;5010048;28;20065;-71
2023/01/28 08:16:54;;;;;;;41.75;13.95;;;;;;;-2.90;100.00;96058.47;5011408;28;20037;-71
2023/01/28 08:19:20;;;;;;;33.58;12.68;;;;;;;-3.01;100.00;96063.03;5009601;28;20088;-71
2023/01/28 08:21:47;;;;;;;27.50;11.50;;;;;;;-2.94;100.00;96062.34;5007141;28;20448;-73
2023/01/28 08:24:12;;;;;;;36.17;13.80;;;;;;;-2.96;100.00;96065.09;4986348;28;20464;-71
2023/01/28 08:26:38;;;;;;;27.20;11.38;;;;;;;-2.93;100.00;96066.53;5007226;28;20045;-70
2023/01/28 08:29:04;;;;;;;30.20;11.93;;;;;;;-3.01;100.00;96078.50;5002471;28;20120;-71
2023/01/28 08:31:30;;;;;;;31.10;12.90;;;;;;;-2.92;100.00;96075.88;5006338;28;20137;-71
2023/01/28 08:33:55;;;;;;;31.58;12.60;;;;;;;-2.85;100.00;96076.78;5009650;28;20061;-70
2023/01/28 08:36:21;;;;;;;26.92;11.30;;;;;;;-2.85;100.00;96076.78;5010223;28;20038;-71
2023/01/28 08:38:52;;;;;;;31.27;12.38;;;;;;;-2.81;100.00;96078.06;4979547;28;20042;-71
2023/01/28 08:41:21;;;;;;;27.85;10.90;;;;;;;-2.87;100.00;96073.59;5007852;28;20034;-72
2023/01/28 08:43:48;;;;;;;30.35;12.90;;;;;;;-2.79;100.00;96076.09;5007325;28;20406;-72
2023/01/28 08:46:13;;;;;;;31.98;11.63;;;;;;;-2.71;100.00;96083.78;5009246;28;20045;-72
2023/01/28 08:48:39;;;;;;;32.42;11.73;;;;;;;-2.67;100.00;96073.91;5012148;28;20050;-73
2023/01/28 08:51:05;;;;;;;28.67;11.77;;;;;;;-2.65;100.00;96077.16;5012309;28;20620;-73
2023/01/28 08:53:30;;;;;;;32.35;12.38;;;;;;;-2.66;100.00;96081.50;5012554;28;20050;-72
2023/01/28 08:55:56;;;;;;;33.90;12.35;;;;;;;-2.75;100.00;96082.53;5012336;28;20038;-72
2023/01/28 08:58:22;;;;;;;25.33;10.48;;;;;;;-2.73;100.00;96090.91;4995448;28;20050;-73
2023/01/28 09:00:49;;;;;;;34.03;12.88;;;;;;;-2.63;100.00;96085.50;4991879;28;20050;-72
2023/01/28 09:03:15;;;;;;;36.42;12.88;;;;;;;-2.60;100.00;96085.16;5011747;28;20038;-73
2023/01/28 09:05:40;;;;;;;35.85;11.35;;;;;;;-2.62;100.00;96087.91;5011996;28;20133;-73
2023/01/28 09:08:09;;;;;;;27.60;11.25;;;;;;;-2.57;100.00;96089.16;5013332;28;20034;-73
2023/01/28 09:10:36;;;;;;;32.35;12.90;;;;;;;-2.52;100.00;96092.03;5005896;28;20041;-75
2023/01/28 09:13:07;;;;;;;29.40;12.00;;;;;;;-2.43;100.00;96096.13;5013134;28;20048;-73
2023/01/28 09:15:33;;;;;;;32.83;11.80;;;;;;;-2.50;100.00;96090.88;5012204;28;20056;-72
2023/01/28 09:17:59;;;;;;;26.55;11.43;;;;;;;-2.44;100.00;96094.56;5006948;28;20572;-73
2023/01/28 09:20:25;;;;;;;33.58;12.82;;;;;;;-2.44;100.00;96094.56;4981488;28;20046;-72
2023/01/28 09:22:51;;;;;;;24.55;10.70;;;;;;;-2.34;100.00;96089.97;5013673;28;20042;-72
2023/01/28 09:25:16;;;;;;;34.95;11.68;;;;;;;-2.36;100.00;96102.19;5011815;28;20045;-72
2023/01/28 09:27:42;;;;;;;28.42;11.65;;;;;;;-2.24;100.00;96101.78;5008973;28;20034;-72
2023/01/28 09:30:09;;;;;;;31.73;11.32;;;;;;;-2.21;100.00;96099.69;5012536;28;20424;-72
2023/01/28 09:32:35;;;;;;;37.45;12.63;;;;;;;-2.23;100.00;96105.97;4993766;28;20038;-71
2023/01/28 09:35:01;;;;;;;29.33;10.13;;;;;;;-2.11;100.00;96109.75;5010331;28;20048;-73
2023/01/28 09:37:27;;;;;;;26.27;11.00;;;;;;;-2.28;100.00;96099.56;5012762;28;20034;-72
2023/01/28 09:39:52;;;;;;;29.55;11.23;;;;;;;-2.20;100.00;96105.63;4985689;28;20448;-73
2023/01/28 09:42:40;;;;;;;32.47;12.23;;;;;;;-2.18;100.00;96098.53;4990137;28;20489;-73
2023/01/28 09:45:08;;;;;;;33.63;12.48;;;;;;;-2.17;100.00;96094.97;5004177;28;20057;-72
2023/01/28 09:47:39;;;;;;;39.42;12.55;;;;;;;-2.18;100.00;96095.97;4978763;28;20046;-73
2023/01/28 09:50:11;;;;;;;36.15;12.77;;;;;;;-2.20;100.00;96100.47;5009052;28;20532;-73
2023/01/28 09:52:40;;;;;;;33.70;12.48;;;;;;;-2.11;100.00;96089.91;5011323;28;20109;-73
2023/01/28 09:55:12;;;;;;;37.90;13.38;;;;;;;-2.01;100.00;96084.53;5011681;28;20065;-73
2023/01/28 09:57:58;;;;;;;32.60;12.23;;;;;;;-1.86;100.00;96091.47;5008775;28;20042;-74
2023/01/28 10:00:34;;;;;;;34.50;12.23;;;;;;;-2.00;100.00;96091.25;5008033;28;20488;-74
2023/01/28 10:03:39;;;;;;;35.33;12.95;;;;;;;-1.96;100.00;96092.50;5008120;28;20046;-74
2023/01/28 10:06:20;;;;;;;34.55;12.07;;;;;;;-2.02;100.00;96082.91;4991397;28;20105;-73
2023/01/28 10:09:17;;;;;;;40.67;13.57;;;;;;;-2.07;100.00;96082.63;5010260;28;20042;-74
2023/01/28 10:12:12;;;;;;;38.90;14.00;;;;;;;-1.82;100.00;96087.56;4988851;28;20077;-75
2023/01/28 10:14:51;;;;;;;33.83;12.13;;;;;;;-1.95;100.00;96083.00;5008145;28;20038;-74
2023/01/28 10:17:36;;;;;;;31.90;12.15;;;;;;;-1.76;100.00;96084.28;5004327;28;20092;-76
2023/01/28 10:20:10;;;;;;;33.60;12.02;;;;;;;-1.69;100.00;96082.56;4989793;28;20045;-73
2023/01/28 10:22:50;;;;;;;34.30;12.07;;;;;;;-1.68;100.00;96084.19;5007098;28;20038;-73
2023/01/28 10:25:27;;;;;;;36.60;13.45;;;;;;;-1.61;100.00;96079.09;5011821;28;20038;-76
2023/01/28 10:27:52;;;;;;;31.08;12.00;;;;;;;-1.48;100.00;96073.31;5006163;28;20061;-74
2023/01/28 10:30:24;;;;;;;36.10;12.82;;;;;;;-1.39;100.00;96077.41;5007331;28;20152;-73
2023/01/28 10:32:53;;;;;;;38.83;13.77;;;;;;;-1.43;100.00;96076.16;5009711;28;20042;-73
2023/01/28 10:35:20;;;;;;;30.25;11.40;;;;;;;-1.51;100.00;96073.66;5006696;28;20050;-75
2023/01/28 10:37:46;;;;;;;35.38;13.82;;;;;;;-1.65;100.00;96063.19;4995391;28;20047;-75
2023/01/28 10:40:16;;;;;;;36.13;13.52;;;;;;;-1.69;100.00;96069.69;4981080;28;20414;-74
2023/01/28 10:42:43;;;;;;;34.30;13.98;;;;;;;-1.63;100.00;96074.13;5006367;28;20129;-74
2023/01/28 10:45:29;;;;;;;31.45;11.70;;;;;;;-1.34;100.00;96075.06;4993982;28;20547;-75
2023/01/28 10:48:00;;;;;;;38.03;14.25;;;;;;;-1.58;100.00;96076.16;5008526;28;20092;-74
2023/01/28 10:50:29;;;;;;;32.50;11.77;;;;;;;-1.44;100.00;96070.22;5006612;28;20041;-75
2023/01/28 10:53:00;;;;;;;23.73;9.68;;;;;;;-1.62;100.00;96073.16;5010063;28;20046;-75
2023/01/28 10:55:29;;;;;;;30.52;11.27;;;;;;;-1.16;100.00;96061.78;5013961;28;20042;-76
2023/01/28 10:57:55;;;;;;;32.72;12.38;;;;;;;-1.19;100.00;96066.50;4993463;28;20038;-76
2023/01/28 11:00:24;;;;;;;29.23;10.82;;;;;;;-1.01;100.00;96074.66;4985869;28;20096;-76
2023/01/28 11:02:50;;;;;;;31.42;10.68;;;;;;;-1.13;100.00;96070.97;5010151;28;20618;-76
2023/01/28 11:05:24;;;;;;;24.92;10.77;;;;;;;-1.13;100.00;96070.97;5013625;28;20167;-77
2023/01/28 11:08:01;;;;;;;27.47;10.33;;;;;;;-1.27;100.00;96065.63;5001605;28;20095;-76
2023/01/28 11:10:34;;;;;;;23.38;9.23;;;;;;;-1.30;100.00;96071.16;5011815;28;20505;-78
2023/01/28 11:13:03;;;;;;;32.65;11.02;;;;;;;-1.22;100.00;96063.31;5004650;28;20037;-78
2023/01/28 11:15:29;;;;;;;31.60;11.85;;;;;;;-1.10;100.00;96068.00;4993292;28;20053;-79
2023/01/28 11:18:05;;;;;;;32.10;12.73;;;;;;;-1.15;100.00;96062.56;5008572;28;20617;-78
2023/01/28 11:20:37;;;;;;;32.78;12.85;;;;;;;-1.04;100.00;96059.53;4993044;28;20057;-79
2023/01/28 11:23:03;;;;;;;26.27;11.43;;;;;;;-1.10;100.00;96065.44;4994311;28;20181;-78
2023/01/28 11:25:34;;;;;;;34.80;12.77;;;;;;;-1.10;100.00;96063.63;5016000;28;20052;-79
2023/01/28 11:28:04;;;;;;;32.22;13.15;;;;;;;-1.19;100.00;96076.84;4994815;28;20044;-78
2023/01/28 11:30:39;;;;;;;34.35;12.25;;;;;;;-1.10;100.00;96068.00;4990526;28;20501;-79
2023/01/28 11:33:44;;;;;;;30.08;12.65;;;;;;;-1.03;100.00;96076.63;5002856;28;20505;-79
2023/01/28 11:36:19;;;;;;;28.13;10.70;;;;;;;-1.01;100.00;96073.88;4994991;28;20509;-79
2023/01/28 11:38:56;;;;;;;35.70;12.55;;;;;;;-0.95;100.00;96073.94;5016963;28;20045;-79
2023/01/28 11:41:35;;;;;;;29.08;11.38;;;;;;;-1.08;100.00;96073.78;5016157;28;20539;-79
2023/01/28 11:44:15;;;;;;;24.65;10.90;;;;;;;-1.03;100.00;96076.63;5016893;28;20512;-78
2023/01/28 11:46:49;;;;;;;29.10;12.20;;;;;;;-1.03;100.00;96081.81;5017418;28;20049;-79
2023/01/28 11:49:21;;;;;;;29.90;12.15;;;;;;;-1.00;100.00;96081.44;5006845;28;20421;-79
2023/01/28 11:52:12;;;;;;;25.92;11.57;;;;;;;-0.83;100.00;96074.25;4999453;28;20042;-79
2023/01/28 11:54:55;;;;;;;28.42;11.63;;;;;;;-0.96;100.00;96077.50;4996195;28;20038;-79